Meteorología y climatología de Navarra
Datos de la estación - Meteo Navarra

Estación de Pamplona GN

Altitud 455 m.


Datos desde el 07/12/2018 hasta el 08/12/2018 en horario solar
Los datos son PROVISIONALES

Anterior Página 1 de 1 Siguiente Descargar: Formato para Excel 2000 o superior   Formato csv   Formato para OpenOffice Calc
Fecha Temperatura Humedad relativa Radiación global Insolación Precipitación Velocidad viento 10 m Velocidad viento 10 m Dirección viento 10 m
ºC % W/m² s l/m² m/s km/h º
07/12/2018 0:00 6.6 88 0.0 0 0.0 1.0 3.6 76
07/12/2018 0:10 6.7 89 0.0 0 0.0 0.3 1.0 76
07/12/2018 0:20 6.7 89 0.0 0 0.0 0.0 0.0 0
07/12/2018 0:30 6.5 89 0.0 0 0.0 0.3 1.0 75
07/12/2018 0:40 6.1 90 0.0 0 0.0 0.3 0.9 125
07/12/2018 0:50 5.9 91 0.0 0 0.0 0.1 0.4 120
07/12/2018 1:00 5.7 92 0.0 0 0.0 0.3 1.1 100
07/12/2018 1:10 5.8 91 0.0 0 0.0 0.1 0.2 151
07/12/2018 1:20 5.4 92 0.0 0 0.0 0.0 0.0 0
07/12/2018 1:30 5.3 92 0.0 0 0.0 0.3 1.0 69
07/12/2018 1:40 5.1 92 0.0 0 0.0 0.2 0.8 54
07/12/2018 1:50 4.9 93 0.0 0 0.0 0.3 1.2 50
07/12/2018 2:00 4.7 93 0.0 0 0.0 1.1 3.8 73
07/12/2018 2:10 4.7 94 0.0 0 0.0 1.0 3.6 84
07/12/2018 2:20 4.7 94 0.0 0 0.0 0.8 2.8 105
07/12/2018 2:30 4.7 94 0.0 0 0.0 0.8 3.0 104
07/12/2018 2:40 4.7 93 0.0 0 0.0 0.9 3.1 80
07/12/2018 2:50 4.4 94 0.0 0 0.0 1.0 3.5 94
07/12/2018 3:00 4.4 94 0.0 0 0.0 1.0 3.5 90
07/12/2018 3:10 4.3 94 0.0 0 0.0 0.5 1.9 101
07/12/2018 3:20 4.2 94 0.0 0 0.0 0.5 1.9 115
07/12/2018 3:30 4.2 93 0.0 0 0.0 0.7 2.5 107
07/12/2018 3:40 4.1 93 0.0 0 0.0 1.3 4.7 104
07/12/2018 3:50 4.1 94 0.0 0 0.0 1.1 4.0 85
07/12/2018 4:00 4.0 94 0.0 0 0.0 0.9 3.1 96
07/12/2018 4:10 3.9 94 0.0 0 0.0 1.0 3.4 95
07/12/2018 4:20 3.7 93 0.0 0 0.0 0.7 2.6 91
07/12/2018 4:30 3.7 93 0.0 0 0.0 0.8 3.0 105
07/12/2018 4:40 3.7 93 0.0 0 0.0 0.9 3.2 98
07/12/2018 4:50 3.6 94 0.0 0 0.0 1.1 3.9 93
07/12/2018 5:00 3.5 94 0.0 0 0.0 1.1 4.0 85
07/12/2018 5:10 3.4 94 0.0 0 0.0 1.3 4.5 82
07/12/2018 5:20 3.2 95 0.0 0 0.0 1.4 4.9 86
07/12/2018 5:30 3.0 95 0.0 0 0.0 1.4 4.9 75
07/12/2018 5:40 2.9 96 0.0 0 0.0 1.1 3.8 73
07/12/2018 5:50 2.9 95 0.0 0 0.0 0.9 3.2 79
07/12/2018 6:00 2.8 95 0.0 0 0.0 1.2 4.2 69
07/12/2018 6:10 2.7 95 0.0 0 0.0 1.4 5.1 76
07/12/2018 6:20 2.7 95 0.0 0 0.0 1.6 5.6 91
07/12/2018 6:30 2.6 95 0.0 0 0.0 1.5 5.2 79
07/12/2018 6:40 2.6 96 0.0 0 0.0 0.8 2.8 86
07/12/2018 6:50 2.5 95 0.0 0 0.0 1.3 4.7 63
07/12/2018 7:00 2.3 95 0.0 0 0.0 1.2 4.2 59
07/12/2018 7:10 2.3 96 0.0 0 0.0 1.0 3.6 61
07/12/2018 7:20 2.4 95 0.0 0 0.0 0.8 2.7 81
07/12/2018 7:30 2.4 95 0.0 0 0.0 0.8 2.9 80
07/12/2018 7:40 2.2 95 0.0 0 0.0 0.1 0.5 71
07/12/2018 7:50 2.3 95 17.9 94 0.0 0.4 1.3 48
07/12/2018 8:00 2.3 95 48.7 600 0.0 0.2 0.7 96
07/12/2018 8:10 2.6 95 72.2 600 0.0 0.4 1.6 88
07/12/2018 8:20 2.8 94 93.9 600 0.0 0.9 3.2 82
07/12/2018 8:30 3.0 93 79.7 314 0.0 0.6 2.1 66
07/12/2018 8:40 3.2 91 124.9 600 0.0 0.5 1.8 60
07/12/2018 8:50 3.6 89 127.8 600 0.0 0.3 1.1 81
07/12/2018 9:00 4.0 88 127.5 600 0.0 0.1 0.4 67
07/12/2018 9:10 4.3 87 138.9 600 0.0 0.5 1.7 126
07/12/2018 9:20 4.3 86 170.9 600 0.0 0.9 3.3 104
07/12/2018 9:30 4.4 86 185.7 600 0.0 1.1 3.8 115
07/12/2018 9:40 4.0 88 254.4 600 0.0 1.1 4.0 93
07/12/2018 9:50 4.1 90 307.3 600 0.0 0.7 2.4 37
07/12/2018 10:00 4.6 90 383.0 600 0.0 0.4 1.5 12
07/12/2018 10:10 5.3 88 335.4 600 0.0 0.2 0.5 318
07/12/2018 10:20 5.5 85 340.6 600 0.0 0.3 1.1 360
07/12/2018 10:30 5.9 85 352.7 600 0.0 0.7 2.5 16
07/12/2018 10:40 5.9 84 363.5 600 0.0 0.5 1.8 36
07/12/2018 10:50 6.2 83 381.4 600 0.0 0.4 1.5 95
07/12/2018 11:00 6.6 82 389.1 600 0.0 0.4 1.3 13
07/12/2018 11:10 6.5 82 395.5 600 0.0 0.4 1.5 92
07/12/2018 11:20 6.9 82 398.6 600 0.0 0.1 0.4 51
07/12/2018 11:30 7.5 81 398.1 600 0.0 0.3 1.0 339
07/12/2018 11:40 7.7 79 401.6 600 0.0 0.3 1.0 346
07/12/2018 11:50 8.0 79 401.3 600 0.0 0.2 0.8 304
07/12/2018 12:00 8.2 77 402.1 600 0.0 0.7 2.6 108
07/12/2018 12:10 8.2 76 399.5 600 0.0 0.2 0.8 96
07/12/2018 12:20 8.6 76 395.9 600 0.0 0.1 0.5 35
07/12/2018 12:30 9.2 73 391.7 600 0.0 0.1 0.3 247
07/12/2018 12:40 9.1 74 384.5 600 0.0 0.3 1.0 90
07/12/2018 12:50 9.4 74 374.6 600 0.0 0.2 0.6 41
07/12/2018 13:00 10.1 71 368.6 600 0.0 0.4 1.6 293
07/12/2018 13:10 9.9 71 375.6 594 0.0 0.9 3.2 293
07/12/2018 13:20 9.8 74 381.5 504 0.0 1.9 6.8 277
07/12/2018 13:30 9.6 75 221.4 224 0.0 1.6 5.6 294
07/12/2018 13:40 9.5 75 192.5 268 0.0 1.3 4.6 241
07/12/2018 13:50 9.8 74 197.7 464 0.0 0.5 1.9 282
07/12/2018 14:00 9.8 75 219.8 600 0.0 1.1 3.9 282
07/12/2018 14:10 10.2 74 411.7 600 0.0 0.3 1.0 21
07/12/2018 14:20 10.5 72 302.4 600 0.0 0.5 1.9 105
07/12/2018 14:30 10.5 72 199.1 372 0.0 0.2 0.7 78
07/12/2018 14:40 10.8 71 120.3 100 0.0 0.2 0.6 317
07/12/2018 14:50 10.7 71 95.0 0 0.0 1.1 3.9 305
07/12/2018 15:00 10.5 72 49.1 0 0.0 1.7 6.2 291
07/12/2018 15:10 10.4 72 42.0 0 0.0 1.3 4.8 287
07/12/2018 15:20 10.3 72 33.1 0 0.0 0.6 2.3 342
07/12/2018 15:30 10.2 73 28.8 0 0.0 0.0 0.0 0
07/12/2018 15:40 10.2 74 24.3 0 0.0 0.0 0.1 146
07/12/2018 15:50 10.2 74 6.1 0 0.0 0.1 0.3 343
07/12/2018 16:00 10.1 75 0.0 0 0.0 0.3 1.0 350
07/12/2018 16:10 10.1 75 0.0 0 0.0 0.5 1.8 305
07/12/2018 16:20 10.1 74 0.0 0 0.0 0.3 1.0 284
07/12/2018 16:30 10.2 74 0.0 0 0.0 1.3 4.6 283
07/12/2018 16:40 10.1 75 0.0 0 0.0 1.1 3.8 300
07/12/2018 16:50 10.0 76 0.0 0 0.0 0.4 1.4 315
07/12/2018 17:00 10.0 77 0.0 0 0.0 0.5 1.8 271
07/12/2018 17:10 10.2 76 0.0 0 0.0 1.0 3.6 257
07/12/2018 17:20 10.4 76 0.0 0 0.0 1.6 5.8 240
07/12/2018 17:30 10.4 78 0.0 0 0.0 1.6 5.6 250
07/12/2018 17:40 10.3 81 0.0 0 0.0 2.3 8.2 274
07/12/2018 17:50 9.9 86 0.0 0 0.0 2.2 8.1 261
07/12/2018 18:00 10.1 90 0.0 0 0.0 2.0 7.1 290
07/12/2018 18:10 9.6 90 0.0 0 0.0 0.5 1.7 21
07/12/2018 18:20 9.5 91 0.0 0 0.0 0.5 1.7 33
07/12/2018 18:30 9.3 92 0.0 0 0.0 0.4 1.5 21
07/12/2018 18:40 9.6 93 0.0 0 0.0 1.6 5.7 310
07/12/2018 18:50 10.3 91 0.0 0 0.0 3.4 12.3 294
07/12/2018 19:00 10.8 86 0.0 0 0.0 3.1 11.1 304
07/12/2018 19:10 10.9 85 0.0 0 0.0 3.1 11.1 306
07/12/2018 19:20 10.8 85 0.0 0 0.0 2.8 10.0 315
07/12/2018 19:30 10.7 86 0.0 0 0.0 2.1 7.5 312
07/12/2018 19:40 10.5 88 0.0 0 0.0 2.2 7.8 331
07/12/2018 19:50 10.3 90 0.0 0 0.0 2.1 7.6 317
07/12/2018 20:00 10.2 90 0.0 0 0.0 2.1 7.4 324
07/12/2018 20:10 10.1 88 0.0 0 0.1 2.4 8.5 328
07/12/2018 20:20 10.0 88 0.0 0 0.1 2.2 7.9 326
07/12/2018 20:30 9.7 90 0.0 0 0.0 2.8 10.1 335
07/12/2018 20:40 9.6 90 0.0 0 0.1 2.0 7.1 351
07/12/2018 20:50 9.6 87 0.0 0 0.0 3.6 12.9 11
07/12/2018 21:00 9.4 85 0.0 0 0.0 3.8 13.7 360
07/12/2018 21:10 9.3 84 0.0 0 0.0 4.0 14.5 2
07/12/2018 21:20 9.1 83 0.0 0 0.0 3.2 11.4 2
07/12/2018 21:30 9.0 84 0.0 0 0.0 2.9 10.5 1
07/12/2018 21:40 8.9 83 0.0 0 0.0 2.9 10.3 359
07/12/2018 21:50 8.6 86 0.0 0 0.0 2.1 7.6 354
07/12/2018 22:00 8.5 86 0.0 0 0.0 2.0 7.0 351
07/12/2018 22:10 8.4 86 0.0 0 0.0 2.3 8.3 349
07/12/2018 22:20 8.4 86 0.0 0 0.0 2.3 8.2 341
07/12/2018 22:30 8.4 87 0.0 0 0.0 1.8 6.3 342
07/12/2018 22:40 8.3 86 0.0 0 0.0 2.4 8.7 346
07/12/2018 22:50 8.4 83 0.0 0 0.0 3.6 12.8 337
07/12/2018 23:00 8.5 82 0.0 0 0.0 1.8 6.3 324
07/12/2018 23:10 8.6 82 0.0 0 0.0 2.1 7.4 319
07/12/2018 23:20 8.5 82 0.0 0 0.0 1.2 4.1 324
07/12/2018 23:30 8.6 82 0.0 0 0.0 1.4 4.9 327
07/12/2018 23:40 8.5 82 0.0 0 0.0 1.6 5.9 334
07/12/2018 23:50 8.6 81 0.0 0 0.0 1.5 5.4 328
Anterior Página 1 de 1 Siguiente

NOTA: Tipo de datos según el color:
   - Valores diarios o 10 minutos correctos
   - Valores diarios calculados a partir de un número de datos 10 minutos menor que 144 y mayor que 120, o de un número de datos semihorarios menor que 48 y mayor que 40 (caso de las estaciones de Riegos de Navarra y del MARM)
   - Valores diez minutos estimados


Contacto        Enlaces        Aviso legal